createdAt,value
2023-03-30T00:01:28.787Z,14.95
2023-03-30T00:03:56.400Z,10.57
2023-03-30T00:06:24.509Z,22.63
2023-03-30T00:08:58.501Z,13.55
2023-03-30T00:11:26.940Z,18.38
2023-03-30T00:13:55.092Z,15.85
2023-03-30T00:16:23.115Z,15.05
2023-03-30T00:18:50.771Z,18.95
2023-03-30T00:21:18.461Z,22.27
2023-03-30T00:23:48.920Z,13.60
2023-03-30T00:26:17.539Z,19.88
2023-03-30T00:28:45.361Z,16.58
2023-03-30T00:31:13.231Z,13.95
2023-03-30T00:33:45.711Z,12.88
2023-03-30T00:38:41.375Z,14.52
2023-03-30T00:41:09.494Z,17.98
2023-03-30T00:44:01.978Z,13.15
2023-03-30T00:49:05.425Z,15.07
2023-03-30T00:51:37.336Z,17.27
2023-03-30T00:54:10.419Z,18.48
2023-03-30T00:56:37.620Z,23.35
2023-03-30T00:59:05.801Z,18.45
2023-03-30T01:01:38.674Z,15.25
2023-03-30T01:04:08.342Z,20.40
2023-03-30T01:06:37.005Z,17.75
2023-03-30T01:09:04.273Z,20.52
2023-03-30T01:11:31.363Z,19.50
2023-03-30T01:14:03.098Z,16.48
2023-03-30T01:16:43.049Z,18.50
2023-03-30T01:19:16.505Z,19.35
2023-03-30T01:21:55.981Z,22.67
2023-03-30T01:24:49.424Z,16.98
2023-03-30T01:27:39.342Z,14.05
2023-03-30T01:30:24.458Z,30.30
2023-03-30T01:33:06.690Z,28.38
2023-03-30T01:36:18.540Z,19.75
2023-03-30T01:39:19.097Z,20.83
2023-03-30T01:41:55.020Z,19.35
2023-03-30T01:44:43.784Z,25.38
2023-03-30T01:47:27.316Z,19.33
2023-03-30T01:50:11.874Z,24.88
2023-03-30T01:52:55.071Z,19.50
2023-03-30T01:56:05.157Z,22.75
2023-03-30T01:58:53.841Z,20.98
2023-03-30T02:01:22.178Z,30.33
2023-03-30T02:03:54.692Z,21.80
2023-03-30T02:06:38.977Z,25.13
2023-03-30T02:09:10.422Z,20.02
2023-03-30T02:11:39.935Z,19.13
2023-03-30T02:14:09.306Z,21.35
2023-03-30T02:16:46.273Z,23.48
2023-03-30T02:19:13.909Z,19.73
2023-03-30T02:21:42.233Z,20.45
2023-03-30T02:24:18.368Z,17.58
2023-03-30T02:26:47.631Z,18.92
2023-03-30T02:29:15.961Z,14.05
2023-03-30T02:31:45.227Z,17.88
2023-03-30T02:34:28.810Z,15.20
2023-03-30T02:37:15.422Z,20.40
2023-03-30T02:40:24.760Z,22.05
2023-03-30T02:43:21.095Z,18.15
2023-03-30T02:46:10.023Z,20.52
2023-03-30T02:48:43.195Z,17.73
2023-03-30T02:51:38.268Z,17.13
2023-03-30T02:54:31.172Z,19.13
2023-03-30T02:57:32.560Z,17.83
2023-03-30T03:00:38.929Z,20.95
2023-03-30T03:03:19.956Z,18.33
2023-03-30T03:05:48.680Z,16.40
2023-03-30T03:08:18.955Z,20.77
2023-03-30T03:10:48.328Z,21.85
2023-03-30T03:13:16.814Z,18.95
2023-03-30T03:15:46.477Z,16.75
2023-03-30T03:18:13.814Z,15.50
2023-03-30T03:20:42.391Z,18.15
2023-03-30T03:23:09.780Z,19.15
2023-03-30T03:25:44.459Z,24.05
2023-03-30T03:28:13.455Z,17.02
2023-03-30T03:30:44.138Z,22.25
2023-03-30T03:33:17.669Z,15.13
2023-03-30T03:35:54.244Z,15.90
2023-03-30T03:38:23.151Z,15.05
2023-03-30T03:40:57.313Z,18.65
2023-03-30T03:43:25.818Z,11.63
2023-03-30T03:45:53.639Z,12.15
2023-03-30T03:48:24.194Z,9.73
2023-03-30T03:50:54.821Z,11.82
2023-03-30T03:53:22.933Z,6.97
2023-03-30T03:55:53.284Z,13.20
2023-03-30T03:58:21.411Z,13.98
2023-03-30T04:00:49.421Z,13.20
2023-03-30T04:03:17.081Z,8.73
2023-03-30T04:05:44.449Z,10.80
2023-03-30T04:08:11.965Z,14.70
2023-03-30T04:10:41.220Z,15.13
2023-03-30T04:13:26.987Z,17.30
2023-03-30T04:16:13.835Z,13.10
2023-03-30T04:18:46.780Z,12.65
2023-03-30T04:21:32.373Z,14.55
2023-03-30T04:24:12.389Z,22.40
2023-03-30T04:26:54.404Z,20.50
2023-03-30T04:29:40.851Z,15.85
2023-03-30T04:32:21.154Z,15.02
2023-03-30T04:35:11.934Z,14.13
2023-03-30T04:38:04.989Z,17.95
2023-03-30T04:40:52.190Z,26.85
2023-03-30T04:43:42.423Z,17.20
2023-03-30T04:46:28.483Z,15.38
2023-03-30T04:48:59.068Z,15.07
2023-03-30T04:51:41.007Z,17.20
2023-03-30T04:54:08.167Z,18.98
2023-03-30T04:56:53.674Z,15.15
2023-03-30T04:59:45.070Z,19.25
2023-03-30T05:02:31.340Z,20.55
2023-03-30T05:05:16.657Z,18.50
2023-03-30T05:07:53.938Z,17.88
2023-03-30T05:10:29.054Z,29.30
2023-03-30T05:13:12.351Z,22.08
2023-03-30T05:15:59.887Z,18.65
2023-03-30T05:18:27.550Z,23.05
2023-03-30T05:21:01.966Z,22.02
2023-03-30T05:23:47.886Z,14.88
2023-03-30T05:26:40.953Z,21.75
2023-03-30T05:29:26.601Z,21.38
2023-03-30T05:32:12.651Z,22.20
2023-03-30T05:34:45.459Z,20.48
2023-03-30T05:37:38.840Z,24.55
2023-03-30T05:40:24.244Z,21.30
2023-03-30T05:43:03.122Z,23.27
2023-03-30T05:45:49.458Z,26.90
2023-03-30T05:48:45.960Z,30.60
2023-03-30T05:51:31.713Z,23.92
2023-03-30T05:54:21.961Z,20.15
2023-03-30T05:57:11.850Z,21.50
2023-03-30T06:00:11.672Z,18.77
2023-03-30T06:02:53.451Z,19.45
2023-03-30T06:05:24.428Z,21.38
2023-03-30T06:07:51.734Z,25.02
2023-03-30T06:10:19.248Z,28.95
2023-03-30T06:12:47.768Z,28.23
2023-03-30T06:15:28.540Z,23.02
2023-03-30T06:18:04.129Z,25.98
2023-03-30T06:20:34.288Z,30.33
2023-03-30T06:23:02.062Z,39.55
2023-03-30T06:25:31.013Z,32.83
2023-03-30T06:27:58.471Z,24.23
2023-03-30T06:30:26.938Z,28.63
2023-03-30T06:32:57.569Z,31.25
2023-03-30T06:35:29.238Z,33.05
2023-03-30T06:37:57.766Z,30.48
2023-03-30T06:40:24.940Z,25.10
2023-03-30T06:42:53.541Z,21.27
2023-03-30T06:45:37.897Z,26.55
2023-03-30T06:48:07.211Z,30.58
2023-03-30T06:53:16.235Z,22.25
2023-03-30T06:55:59.748Z,20.30
2023-03-30T06:58:31.399Z,25.23
2023-03-30T07:00:59.058Z,22.25
2023-03-30T07:03:58.592Z,16.35
2023-03-30T07:06:36.079Z,33.40
2023-03-30T07:09:05.620Z,24.73
2023-03-30T07:11:33.076Z,24.88
2023-03-30T07:14:01.362Z,27.73
2023-03-30T07:16:28.790Z,29.00
2023-03-30T07:18:56.030Z,25.65
2023-03-30T07:21:23.962Z,27.42
2023-03-30T07:23:51.196Z,30.52
2023-03-30T07:26:28.950Z,22.52
2023-03-30T07:29:05.726Z,19.73
2023-03-30T07:31:33.307Z,20.58
2023-03-30T07:34:03.217Z,36.10
2023-03-30T07:36:35.113Z,18.83
2023-03-30T07:39:02.298Z,20.55
2023-03-30T07:41:31.373Z,21.63
2023-03-30T07:44:00.087Z,24.30
2023-03-30T07:46:27.272Z,33.08
2023-03-30T07:48:55.862Z,22.05
2023-03-30T07:51:24.272Z,28.75
2023-03-30T07:54:00.328Z,22.63
2023-03-30T07:56:39.270Z,23.75
2023-03-30T07:59:10.772Z,23.40
2023-03-30T08:01:38.993Z,20.87
2023-03-30T08:04:19.818Z,28.08
2023-03-30T08:06:47.481Z,20.88
2023-03-30T08:09:15.429Z,23.17
2023-03-30T08:11:42.662Z,21.00
2023-03-30T08:14:09.929Z,22.23
2023-03-30T08:16:37.343Z,31.73
2023-03-30T08:19:04.561Z,21.05
2023-03-30T08:21:31.784Z,21.13
2023-03-30T08:23:59.359Z,24.52
2023-03-30T08:26:27.006Z,22.63
2023-03-30T08:28:54.628Z,28.88
2023-03-30T08:31:21.993Z,33.65
2023-03-30T08:33:49.862Z,26.05
2023-03-30T08:36:17.095Z,20.83
2023-03-30T08:38:45.329Z,22.40
2023-03-30T08:41:24.527Z,30.08
2023-03-30T08:44:00.542Z,29.95
2023-03-30T08:46:29.242Z,26.75
2023-03-30T08:49:01.222Z,26.35
2023-03-30T08:51:33.335Z,21.30
2023-03-30T08:54:03.568Z,28.20
2023-03-30T08:57:03.469Z,32.50
2023-03-30T08:59:36.416Z,20.52
2023-03-30T09:02:08.367Z,29.90
2023-03-30T09:04:56.876Z,30.98
2023-03-30T09:07:28.671Z,20.10
2023-03-30T09:09:57.384Z,26.15
2023-03-30T09:12:34.406Z,30.63
2023-03-30T09:15:13.537Z,24.80
2023-03-30T09:17:52.276Z,16.27
2023-03-30T09:20:24.326Z,22.80
2023-03-30T09:22:54.081Z,18.73
2023-03-30T09:25:26.619Z,25.67
2023-03-30T09:28:13.128Z,18.10
2023-03-30T09:30:55.803Z,16.30
2023-03-30T09:33:55.422Z,23.10
2023-03-30T09:37:00.616Z,25.08
2023-03-30T09:39:31.639Z,24.17
2023-03-30T09:42:34.170Z,22.38
2023-03-30T09:45:07.376Z,28.98
2023-03-30T09:47:37.151Z,23.20
2023-03-30T09:50:12.090Z,27.90
2023-03-30T09:52:41.057Z,27.50
2023-03-30T09:55:29.270Z,21.88
2023-03-30T09:58:11.214Z,28.25
2023-03-30T10:00:39.348Z,26.77
2023-03-30T10:03:08.232Z,19.67
2023-03-30T10:05:38.356Z,30.33
2023-03-30T10:08:19.582Z,24.98
2023-03-30T10:10:54.310Z,19.17
2023-03-30T10:13:31.217Z,27.40
2023-03-30T10:16:07.847Z,26.50
2023-03-30T10:18:42.660Z,22.27
2023-03-30T10:21:22.901Z,19.58
2023-03-30T10:24:08.555Z,24.52
2023-03-30T10:26:38.228Z,21.92
2023-03-30T10:29:09.721Z,21.52
2023-03-30T10:31:40.006Z,23.83
2023-03-30T10:34:16.766Z,23.08
2023-03-30T10:36:49.271Z,27.83
2023-03-30T10:39:28.460Z,22.05
2023-03-30T10:41:59.706Z,29.38
2023-03-30T10:44:50.800Z,25.58
2023-03-30T10:47:35.691Z,23.52
2023-03-30T10:50:12.654Z,27.85
2023-03-30T10:52:59.643Z,16.25
2023-03-30T10:55:39.136Z,23.65
2023-03-30T10:58:43.934Z,27.67
2023-03-30T11:01:22.219Z,24.70
2023-03-30T11:03:58.388Z,21.10
2023-03-30T11:06:33.040Z,24.25
2023-03-30T11:09:04.076Z,23.35
2023-03-30T11:11:40.760Z,22.42
2023-03-30T11:14:15.594Z,20.17
2023-03-30T11:17:34.145Z,21.30
2023-03-30T11:20:27.318Z,20.85
2023-03-30T11:23:01.391Z,25.25
2023-03-30T11:25:40.077Z,22.23
2023-03-30T11:28:18.270Z,21.92
2023-03-30T11:30:45.753Z,26.67
2023-03-30T11:33:39.401Z,21.58
2023-03-30T11:36:32.575Z,21.67
2023-03-30T11:39:04.770Z,25.05
2023-03-30T11:42:17.176Z,23.38
2023-03-30T11:44:44.663Z,29.08
2023-03-30T11:47:41.705Z,20.02
2023-03-30T11:50:29.994Z,21.35
2023-03-30T11:53:05.587Z,25.67
2023-03-30T11:55:51.192Z,18.40
2023-03-30T11:58:48.211Z,18.33
2023-03-30T12:01:43.236Z,18.35
2023-03-30T12:04:14.704Z,16.48
2023-03-30T12:06:51.825Z,23.17
2023-03-30T12:09:30.893Z,21.70
2023-03-30T12:12:15.754Z,19.02
2023-03-30T12:15:26.410Z,16.45
2023-03-30T12:17:55.910Z,13.23
2023-03-30T12:20:50.801Z,21.27
2023-03-30T12:23:35.673Z,21.52
2023-03-30T12:26:24.360Z,26.13
2023-03-30T12:29:26.171Z,20.75
2023-03-30T12:31:54.856Z,23.45
2023-03-30T12:34:24.061Z,19.73
2023-03-30T12:37:13.394Z,14.25
2023-03-30T12:39:49.273Z,23.02
2023-03-30T12:42:26.985Z,15.60
2023-03-30T12:45:15.673Z,15.82
2023-03-30T12:47:55.284Z,22.08
2023-03-30T12:50:41.467Z,21.23
2023-03-30T12:53:27.438Z,16.70
2023-03-30T12:56:05.904Z,25.27
2023-03-30T12:59:11.608Z,17.70
2023-03-30T13:02:09.055Z,13.05
2023-03-30T13:04:43.183Z,14.32
2023-03-30T13:07:23.196Z,24.08
2023-03-30T13:10:00.445Z,21.55
2023-03-30T13:12:27.718Z,18.58
2023-03-30T13:15:21.452Z,15.95
2023-03-30T13:18:07.437Z,11.98
2023-03-30T13:20:47.316Z,16.65
2023-03-30T13:23:14.586Z,16.08
2023-03-30T13:26:03.525Z,15.30
2023-03-30T13:29:05.097Z,16.40
2023-03-30T13:31:53.641Z,15.50
2023-03-30T13:35:05.469Z,19.33
2023-03-30T13:38:16.156Z,18.17
2023-03-30T13:43:50.930Z,20.95
2023-03-30T13:46:38.565Z,15.52
2023-03-30T13:49:26.140Z,16.92
2023-03-30T13:51:58.029Z,15.95
2023-03-30T13:54:32.078Z,18.77
2023-03-30T13:57:11.065Z,22.27
2023-03-30T13:59:44.381Z,12.48
2023-03-30T14:02:16.413Z,17.85
2023-03-30T14:04:49.341Z,14.93
2023-03-30T14:07:18.326Z,21.38
2023-03-30T14:10:04.761Z,17.00
2023-03-30T14:12:33.966Z,21.00
2023-03-30T14:15:02.630Z,18.92
2023-03-30T14:17:29.794Z,22.45
2023-03-30T14:20:21.144Z,16.17
2023-03-30T14:22:50.435Z,22.20
2023-03-30T14:25:35.321Z,17.08
2023-03-30T14:28:24.062Z,21.30
2023-03-30T14:31:01.165Z,16.42
2023-03-30T14:33:28.445Z,19.65
2023-03-30T14:35:58.426Z,19.23
2023-03-30T14:38:44.125Z,16.80
2023-03-30T14:41:17.043Z,15.20
2023-03-30T14:43:53.862Z,18.95
2023-03-30T14:46:23.608Z,18.58
2023-03-30T14:48:51.095Z,17.90
2023-03-30T14:51:25.179Z,15.23
2023-03-30T14:53:54.552Z,11.20
2023-03-30T14:56:22.992Z,19.83
2023-03-30T14:58:52.140Z,14.45
2023-03-30T15:01:31.055Z,14.15
2023-03-30T15:04:02.034Z,11.95
2023-03-30T15:06:30.838Z,17.23
2023-03-30T15:09:09.863Z,13.80
2023-03-30T15:11:39.657Z,18.30
2023-03-30T15:14:15.958Z,16.60
2023-03-30T15:16:43.353Z,16.95
2023-03-30T15:19:27.647Z,18.45
2023-03-30T15:21:58.674Z,18.83
2023-03-30T15:24:32.271Z,17.75
2023-03-30T15:27:03.218Z,15.82
2023-03-30T15:29:31.656Z,18.98
2023-03-30T15:32:07.996Z,20.30
2023-03-30T15:34:35.247Z,13.98
2023-03-30T15:37:02.676Z,20.88
2023-03-30T15:39:36.594Z,13.65
2023-03-30T15:42:07.102Z,15.05
2023-03-30T15:44:40.572Z,16.88
2023-03-30T15:47:14.878Z,15.38
2023-03-30T15:49:46.104Z,18.38
2023-03-30T15:52:19.935Z,16.23
2023-03-30T15:54:54.134Z,26.23
2023-03-30T15:57:30.010Z,19.67
2023-03-30T16:00:02.801Z,15.93
2023-03-30T16:02:31.578Z,20.73
2023-03-30T16:05:01.091Z,18.60
2023-03-30T16:07:29.423Z,18.40
2023-03-30T16:09:56.541Z,19.70
2023-03-30T16:12:29.722Z,23.13
2023-03-30T16:14:58.204Z,15.65
2023-03-30T16:17:25.832Z,19.17
2023-03-30T16:19:52.979Z,22.15
2023-03-30T16:22:20.183Z,12.55
2023-03-30T16:24:48.353Z,21.00
2023-03-30T16:27:15.699Z,14.90
2023-03-30T16:29:42.962Z,24.30
2023-03-30T16:32:10.466Z,20.20
2023-03-30T16:34:37.720Z,17.98
2023-03-30T16:37:04.912Z,22.50
2023-03-30T16:39:32.166Z,18.77
2023-03-30T16:42:00.330Z,22.27
2023-03-30T16:44:27.491Z,16.27
2023-03-30T16:46:54.722Z,24.67
2023-03-30T16:49:24.703Z,22.38
2023-03-30T16:51:55.090Z,15.82
2023-03-30T16:54:32.011Z,18.58
2023-03-30T16:57:01.574Z,20.63
2023-03-30T16:59:30.680Z,17.08
2023-03-30T17:01:58.466Z,32.15
2023-03-30T17:04:26.530Z,19.42
2023-03-30T17:06:54.915Z,26.98
2023-03-30T17:09:22.633Z,23.00
2023-03-30T17:11:50.474Z,25.05
2023-03-30T17:14:18.316Z,20.25
2023-03-30T17:16:46.355Z,17.42
2023-03-30T17:19:14.679Z,21.75
2023-03-30T17:21:46.146Z,18.63
2023-03-30T17:24:15.366Z,22.65
2023-03-30T17:26:42.890Z,22.13
2023-03-30T17:29:10.966Z,22.40
2023-03-30T17:31:45.566Z,31.98
2023-03-30T17:34:13.298Z,27.45
2023-03-30T17:36:40.550Z,32.50
2023-03-30T17:39:10.363Z,66.35
2023-03-30T17:41:38.283Z,34.97
2023-03-30T17:44:06.667Z,25.65
2023-03-30T17:46:33.946Z,25.08
2023-03-30T17:49:01.344Z,36.05
2023-03-30T17:51:28.565Z,21.15
2023-03-30T17:53:55.886Z,21.67
2023-03-30T17:56:23.210Z,31.45
2023-03-30T17:58:51.868Z,22.83
2023-03-30T18:01:19.319Z,26.05
2023-03-30T18:03:46.892Z,28.30
2023-03-30T18:06:14.127Z,33.55
2023-03-30T18:08:43.029Z,30.88
2023-03-30T18:11:10.522Z,26.25
2023-03-30T18:13:38.101Z,24.35
2023-03-30T18:16:06.130Z,21.33
2023-03-30T18:18:33.325Z,23.58
2023-03-30T18:21:03.164Z,16.23
2023-03-30T18:23:33.315Z,19.65
2023-03-30T18:26:01.666Z,26.90
2023-03-30T18:28:29.273Z,33.55
2023-03-30T18:31:00.860Z,32.03
2023-03-30T18:33:28.574Z,22.88
2023-03-30T18:36:04.881Z,27.58
2023-03-30T18:38:33.954Z,19.58
2023-03-30T18:41:01.602Z,24.17
2023-03-30T18:43:29.100Z,19.08
2023-03-30T18:46:02.903Z,23.92
2023-03-30T18:48:30.935Z,21.30
2023-03-30T18:50:58.509Z,27.23
2023-03-30T18:53:27.664Z,18.77
2023-03-30T18:56:01.637Z,28.35
2023-03-30T18:58:31.275Z,22.95
2023-03-30T19:00:58.672Z,23.67
2023-03-30T19:03:27.558Z,27.58
2023-03-30T19:05:54.878Z,28.35
2023-03-30T19:08:24.486Z,26.02
2023-03-30T19:10:54.947Z,21.25
2023-03-30T19:13:23.442Z,22.75
2023-03-30T19:15:52.069Z,22.33
2023-03-30T19:18:19.997Z,22.08
2023-03-30T19:20:49.931Z,21.15
2023-03-30T19:23:18.261Z,21.85
2023-03-30T19:25:45.918Z,19.45
2023-03-30T19:28:15.005Z,23.70
2023-03-30T19:30:42.288Z,21.40
2023-03-30T19:33:12.675Z,23.52
2023-03-30T19:35:49.120Z,21.83
2023-03-30T19:38:16.485Z,26.88
2023-03-30T19:40:46.918Z,21.48
2023-03-30T19:43:14.191Z,25.50
2023-03-30T19:45:41.323Z,25.90
2023-03-30T19:48:09.686Z,21.25
2023-03-30T19:50:38.587Z,23.92
2023-03-30T19:53:05.925Z,20.98
2023-03-30T19:55:33.105Z,20.85
2023-03-30T19:58:00.484Z,33.38
2023-03-30T20:00:27.610Z,28.70
2023-03-30T20:02:56.563Z,22.52
2023-03-30T20:05:24.767Z,25.75
2023-03-30T20:07:52.185Z,23.02
2023-03-30T20:10:22.256Z,21.95
2023-03-30T20:12:50.486Z,22.85
2023-03-30T20:15:18.653Z,22.92
2023-03-30T20:17:45.861Z,25.55
2023-03-30T20:20:17.098Z,23.58
2023-03-30T20:22:45.120Z,24.23
2023-03-30T20:25:14.507Z,17.02
2023-03-30T20:27:41.992Z,19.90
2023-03-30T20:30:11.658Z,18.35
2023-03-30T20:32:39.107Z,24.08
2023-03-30T20:35:07.578Z,24.35
2023-03-30T20:37:34.925Z,23.35
2023-03-30T20:40:04.144Z,20.55
2023-03-30T20:42:39.928Z,16.60
2023-03-30T20:45:08.237Z,21.35
2023-03-30T20:47:35.638Z,28.98
2023-03-30T20:50:04.008Z,30.98
2023-03-30T20:52:31.361Z,24.63
2023-03-30T20:54:59.685Z,20.35
2023-03-30T20:57:27.399Z,21.33
2023-03-30T20:59:54.755Z,18.02
2023-03-30T21:02:22.079Z,24.80
2023-03-30T21:04:50.458Z,25.15
2023-03-30T21:07:18.054Z,21.48
2023-03-30T21:09:45.958Z,23.55
2023-03-30T21:12:13.251Z,25.73
2023-03-30T21:14:40.490Z,23.95
2023-03-30T21:17:08.109Z,26.20
2023-03-30T21:19:35.550Z,24.75
2023-03-30T21:22:02.923Z,33.97
2023-03-30T21:24:30.763Z,20.60
2023-03-30T21:26:58.044Z,24.60
2023-03-30T21:29:26.282Z,23.13
2023-03-30T21:31:54.011Z,12.38
2023-03-30T21:34:22.168Z,16.08
2023-03-30T21:36:49.350Z,14.23
2023-03-30T21:39:16.594Z,14.70
2023-03-30T21:41:45.448Z,13.18
2023-03-30T21:44:12.909Z,6.97
2023-03-30T21:46:43.550Z,11.80
2023-03-30T21:49:12.193Z,11.55
2023-03-30T21:51:39.683Z,9.93
2023-03-30T21:54:07.789Z,8.88
2023-03-30T21:56:35.431Z,9.57
2023-03-30T21:59:02.792Z,7.80
2023-03-30T22:01:30.565Z,10.50
2023-03-30T22:03:58.136Z,5.13
2023-03-30T22:06:25.836Z,8.20
2023-03-30T22:08:53.623Z,11.10
2023-03-30T22:11:25.745Z,9.90
2023-03-30T22:13:55.497Z,7.22
2023-03-30T22:16:28.975Z,5.78
2023-03-30T22:18:56.501Z,9.10
2023-03-30T22:21:34.923Z,8.43
2023-03-30T22:24:04.446Z,5.22
2023-03-30T22:26:32.033Z,7.65
2023-03-30T22:28:59.709Z,10.27
2023-03-30T22:31:27.852Z,9.48
2023-03-30T22:33:56.541Z,6.38
2023-03-30T22:36:32.294Z,12.98
2023-03-30T22:39:01.473Z,9.55
2023-03-30T22:41:29.425Z,10.88
2023-03-30T22:43:58.048Z,7.40
2023-03-30T22:46:27.501Z,8.80
2023-03-30T22:48:55.890Z,12.10
2023-03-30T22:51:26.712Z,15.55
2023-03-30T22:53:58.729Z,7.60
2023-03-30T22:56:27.782Z,12.50
2023-03-30T22:58:55.460Z,6.57
2023-03-30T23:01:22.827Z,7.28
2023-03-30T23:03:50.472Z,5.70
2023-03-30T23:06:19.238Z,5.05
2023-03-30T23:08:48.750Z,8.85
2023-03-30T23:11:16.496Z,4.57
2023-03-30T23:13:43.755Z,12.15
2023-03-30T23:16:11.112Z,10.95
2023-03-30T23:18:39.088Z,9.30
2023-03-30T23:21:07.640Z,9.30
2023-03-30T23:23:38.456Z,19.15
2023-03-30T23:26:10.426Z,9.10
2023-03-30T23:28:39.725Z,12.52
2023-03-30T23:31:17.768Z,11.15
2023-03-30T23:33:45.901Z,14.50
2023-03-30T23:36:17.473Z,18.15
2023-03-30T23:38:45.436Z,9.32
2023-03-30T23:41:18.178Z,15.10
2023-03-30T23:43:46.355Z,11.57
2023-03-30T23:46:14.308Z,7.20
2023-03-30T23:48:42.228Z,10.35
2023-03-30T23:51:09.949Z,10.05
2023-03-30T23:53:41.858Z,10.02
2023-03-30T23:56:17.788Z,16.25
2023-03-30T23:58:45.090Z,8.88
